Time,TemperatureF,DewpointF,PressureIn,WindDirection,WindDirectionDegrees,WindSpeedMPH,WindSpeedGustMPH,Humidity,HourlyPrecipIn,Conditions,Clouds,dailyrainin,SoftwareType,DateUTC
2013-03-15 00:00:00,30.9,21.2,29.99,SW,221,2.0,6.0,67,0.00,,OVC003,0.01,VWS V14.01,2013-03-15 04:00:00,
2013-03-15 00:01:00,30.9,21.2,29.99,SW,221,2.0,0.0,67,0.00,,OVC003,0.00,VWS V14.01,2013-03-15 04:01:00,
2013-03-15 00:04:00,30.9,21.6,29.99,SW,214,6.0,6.0,68,0.00,,OVC003,0.00,VWS V14.01,2013-03-15 04:04:00,
2013-03-15 00:05:00,30.9,21.6,29.99,SSW,213,4.0,4.0,68,0.00,,OVC003,0.00,VWS V14.01,2013-03-15 04:05:00,
2013-03-15 00:10:00,31.0,21.7,29.99,SW,227,2.0,4.0,68,0.00,,OVC003,0.00,VWS V14.01,2013-03-15 04:10:00,
2013-03-15 00:15:00,31.1,21.8,29.97,SW,232,2.0,4.0,68,0.00,,OVC003,0.00,VWS V14.01,2013-03-15 04:15:00,
2013-03-15 00:20:00,31.1,22.1,29.97,WSW,241,4.0,4.0,69,0.00,,OVC003,0.00,VWS V14.01,2013-03-15 04:20:00,
2013-03-15 00:25:00,31.2,22.2,29.97,West,271,2.0,5.0,69,0.00,,OVC003,0.00,VWS V14.01,2013-03-15 04:25:00,
2013-03-15 00:30:00,31.2,22.6,29.97,West,261,3.0,5.0,70,0.00,,OVC003,0.00,VWS V14.01,2013-03-15 04:30:00,
2013-03-15 00:35:00,31.3,22.7,29.97,SSW,195,2.0,7.0,70,0.00,,OVC003,0.00,VWS V14.01,2013-03-15 04:35:00,
2013-03-15 00:40:00,31.4,22.8,29.97,WSW,248,2.0,4.0,70,0.00,,OVC003,0.00,VWS V14.01,2013-03-15 04:40:00,
2013-03-15 00:45:00,31.5,23.2,29.96,SW,228,4.0,6.0,71,0.00,,OVC003,0.00,VWS V14.01,2013-03-15 04:45:00,
2013-03-15 00:50:00,31.6,23.3,29.96,WNW,284,5.0,6.0,71,0.00,,OVC003,0.00,VWS V14.01,2013-03-15 04:50:00,
2013-03-15 00:55:00,31.6,23.6,29.96,West,266,2.0,5.0,72,0.00,,OVC003,0.00,VWS V14.01,2013-03-15 04:55:00,
2013-03-15 01:00:00,31.7,23.7,29.95,West,266,2.0,2.0,72,0.00,,OVC003,0.00,VWS V14.01,2013-03-15 05:00:00,
2013-03-15 01:05:00,31.7,24.0,29.95,WSW,249,3.0,3.0,73,0.00,,OVC003,0.00,VWS V14.01,2013-03-15 05:05:00,
2013-03-15 01:06:00,30.9,21.2,29.99,WSW,255,2.0,4.0,67,0.00,,OVC003,0.00,VWS V14.01,2013-03-15 05:06:00,
2013-03-15 01:10:00,31.8,23.8,29.95,South,174,2.0,3.0,72,0.00,,OVC003,0.00,VWS V14.01,2013-03-15 05:10:00,
2013-03-15 01:11:00,31.0,21.7,29.99,SW,218,2.0,4.0,68,0.00,,OVC003,0.00,VWS V14.01,2013-03-15 05:11:00,
2013-03-15 01:15:00,31.9,24.2,29.95,SW,226,2.0,4.0,73,0.00,,OVC003,0.00,VWS V14.01,2013-03-15 05:15:00,
2013-03-15 01:16:00,31.0,21.7,29.99,SW,232,4.0,4.0,68,0.00,,OVC003,0.00,VWS V14.01,2013-03-15 05:16:00,
2013-03-15 01:20:00,32.0,24.3,29.95,SW,226,2.0,3.0,73,0.00,,OVC003,0.00,VWS V14.01,2013-03-15 05:20:00,
2013-03-15 01:21:00,31.1,22.1,29.97,WSW,252,3.0,4.0,69,0.00,,OVC003,0.00,VWS V14.01,2013-03-15 05:21:00,
2013-03-15 01:25:00,32.0,24.3,29.95,WSW,241,4.0,5.0,73,0.00,,OVC003,0.00,VWS V14.01,2013-03-15 05:25:00,
2013-03-15 01:26:00,31.1,22.1,29.97,SW,233,3.0,3.0,69,0.00,,OVC003,0.00,VWS V14.01,2013-03-15 05:26:00,
2013-03-15 01:30:00,32.1,24.8,29.95,SW,221,5.0,5.0,74,0.00,,OVC003,0.00,VWS V14.01,2013-03-15 05:30:00,
2013-03-15 01:31:00,31.2,22.6,29.97,West,272,2.0,2.0,70,0.00,,OVC003,0.00,VWS V14.01,2013-03-15 05:31:00,
2013-03-15 01:35:00,32.3,25.0,29.95,SSW,206,5.0,6.0,74,0.00,,OVC003,0.00,VWS V14.01,2013-03-15 05:35:00,
2013-03-15 01:36:00,31.3,22.7,29.97,WSW,245,3.0,3.0,70,0.00,,OVC003,0.00,VWS V14.01,2013-03-15 05:36:00,
2013-03-15 01:40:00,32.3,25.0,29.95,SW,221,7.0,7.0,74,0.00,,OVC003,0.00,VWS V14.01,2013-03-15 05:40:00,
2013-03-15 01:41:00,31.4,22.8,29.97,WSW,244,5.0,5.0,70,0.00,,OVC003,0.00,VWS V14.01,2013-03-15 05:41:00,
2013-03-15 01:45:00,32.3,25.3,29.94,SW,224,5.0,5.0,75,0.00,,OVC003,0.00,VWS V14.01,2013-03-15 05:45:00,
2013-03-15 01:46:00,31.5,23.2,29.97,WSW,238,5.0,6.0,71,0.00,,OVC003,0.00,VWS V14.01,2013-03-15 05:46:00,
2013-03-15 01:50:00,32.3,25.3,29.94,WSW,245,5.0,5.0,75,0.00,,OVC003,0.00,VWS V14.01,2013-03-15 05:50:00,
2013-03-15 01:52:00,31.5,23.2,29.96,South,179,4.0,6.0,71,0.00,,OVC003,0.00,VWS V14.01,2013-03-15 05:52:00,
2013-03-15 01:55:00,32.3,25.3,29.94,WNW,282,4.0,6.0,75,0.00,,OVC003,0.00,VWS V14.01,2013-03-15 05:55:00,
2013-03-15 01:57:00,31.6,23.3,29.96,West,266,2.0,5.0,71,0.00,,OVC003,0.00,VWS V14.01,2013-03-15 05:57:00,
2013-03-15 02:00:00,32.3,25.6,29.93,SSW,192,3.0,4.0,76,0.00,,OVC003,0.00,VWS V14.01,2013-03-15 06:00:00,
2013-03-15 02:02:00,31.6,23.6,29.96,West,266,4.0,4.0,72,0.00,,OVC003,0.00,VWS V14.01,2013-03-15 06:02:00,
2013-03-15 02:05:00,32.2,25.5,29.93,WSW,247,2.0,3.0,76,0.00,,OVC003,0.00,VWS V14.01,2013-03-15 06:05:00,
2013-03-15 02:07:00,31.7,23.7,29.95,WSW,248,4.0,4.0,72,0.00,,OVC003,0.00,VWS V14.01,2013-03-15 06:07:00,
2013-03-15 02:10:00,32.1,25.4,29.93,SW,217,5.0,5.0,76,0.00,,OVC003,0.00,VWS V14.01,2013-03-15 06:10:00,
2013-03-15 02:12:00,31.7,23.7,29.95,South,174,3.0,3.0,72,0.00,,OVC003,0.00,VWS V14.01,2013-03-15 06:12:00,
2013-03-15 02:15:00,32.1,25.7,29.92,SW,221,4.0,4.0,77,0.00,,OVC003,0.00,VWS V14.01,2013-03-15 06:15:00,
2013-03-15 02:17:00,31.9,24.2,29.95,SW,236,4.0,4.0,73,0.00,,OVC003,0.00,VWS V14.01,2013-03-15 06:17:00,
2013-03-15 02:20:00,32.1,25.7,29.92,SW,235,4.0,4.0,77,0.00,,OVC003,0.00,VWS V14.01,2013-03-15 06:20:00,
2013-03-15 02:22:00,32.0,24.3,29.95,SW,226,2.0,2.0,73,0.00,,OVC003,0.00,VWS V14.01,2013-03-15 06:22:00,
2013-03-15 02:25:00,32.2,25.8,29.92,SW,233,4.0,4.0,77,0.00,,OVC003,0.00,VWS V14.01,2013-03-15 06:25:00,
2013-03-15 02:27:00,32.0,24.3,29.95,WSW,239,4.0,5.0,73,0.00,,OVC003,0.00,VWS V14.01,2013-03-15 06:27:00,
2013-03-15 02:30:00,32.2,25.8,29.92,SW,220,2.0,3.0,77,0.00,,OVC003,0.00,VWS V14.01,2013-03-15 06:30:00,
2013-03-15 02:32:00,32.1,24.8,29.95,SW,236,6.0,6.0,74,0.00,,OVC003,0.00,VWS V14.01,2013-03-15 06:32:00,
2013-03-15 02:35:00,32.2,26.1,29.92,South,187,3.0,5.0,78,0.00,,OVC003,0.00,VWS V14.01,2013-03-15 06:35:00,
2013-03-15 02:37:00,32.2,24.9,29.95,SW,223,5.0,5.0,74,0.00,,OVC003,0.00,VWS V14.01,2013-03-15 06:37:00,
2013-03-15 02:40:00,32.3,26.2,29.92,SW,230,2.0,5.0,78,0.00,,OVC003,0.00,VWS V14.01,2013-03-15 06:40:00,
2013-03-15 02:42:00,32.3,25.0,29.95,SW,214,5.0,5.0,74,0.00,,OVC003,0.00,VWS V14.01,2013-03-15 06:42:00,
2013-03-15 02:45:00,32.4,26.3,29.91,SW,218,3.0,5.0,78,0.00,,OVC003,0.00,VWS V14.01,2013-03-15 06:45:00,
2013-03-15 02:47:00,32.3,25.0,29.95,SW,221,4.0,5.0,74,0.00,,OVC003,0.00,VWS V14.01,2013-03-15 06:47:00,
2013-03-15 02:50:00,32.5,26.7,29.91,SSW,199,3.0,6.0,79,0.00,,OVC003,0.00,VWS V14.01,2013-03-15 06:50:00,
2013-03-15 02:52:00,32.4,25.4,29.94,SW,226,2.0,4.0,75,0.00,,OVC003,0.00,VWS V14.01,2013-03-15 06:52:00,
2013-03-15 02:55:00,32.6,26.8,29.91,West,275,2.0,7.0,79,0.00,,OVC003,0.00,VWS V14.01,2013-03-15 06:55:00,
2013-03-15 02:57:00,32.3,25.3,29.94,WSW,249,5.0,5.0,75,0.00,,OVC003,0.00,VWS V14.01,2013-03-15 06:57:00,
2013-03-15 03:00:00,32.7,26.9,29.89,SSW,203,3.0,3.0,79,0.00,,OVC003,0.00,VWS V14.01,2013-03-15 07:00:00,
2013-03-15 03:03:00,32.3,25.6,29.94,SW,226,4.0,4.0,76,0.00,,OVC003,0.00,VWS V14.01,2013-03-15 07:03:00,
2013-03-15 03:05:00,32.8,27.3,29.89,WNW,287,6.0,6.0,80,0.00,,OVC003,0.00,VWS V14.01,2013-03-15 07:05:00,
2013-03-15 03:08:00,32.3,25.6,29.93,WSW,243,3.0,3.0,76,0.00,,OVC003,0.00,VWS V14.01,2013-03-15 07:08:00,
2013-03-15 03:10:00,32.9,27.4,29.89,SW,215,5.0,7.0,80,0.00,,OVC003,0.00,VWS V14.01,2013-03-15 07:10:00,
2013-03-15 03:13:00,32.1,25.4,29.93,WSW,247,2.0,2.0,76,0.00,,OVC003,0.00,VWS V14.01,2013-03-15 07:13:00,
2013-03-15 03:15:00,33.1,27.6,29.89,SW,236,6.0,6.0,80,0.00,,OVC003,0.00,VWS V14.01,2013-03-15 07:15:00,
2013-03-15 03:18:00,32.1,25.7,29.93,SW,220,5.0,5.0,77,0.00,,OVC003,0.00,VWS V14.01,2013-03-15 07:18:00,
2013-03-15 03:20:00,33.1,27.6,29.89,NNW,330,3.0,7.0,80,0.00,,OVC003,0.00,VWS V14.01,2013-03-15 07:20:00,
2013-03-15 03:23:00,32.2,25.8,29.92,SW,235,3.0,4.0,77,0.00,,OVC003,0.00,VWS V14.01,2013-03-15 07:23:00,
2013-03-15 03:25:00,33.2,27.7,29.89,SW,233,7.0,7.0,80,0.00,,OVC003,0.00,VWS V14.01,2013-03-15 07:25:00,
2013-03-15 03:28:00,32.1,25.7,29.92,SW,234,4.0,4.0,77,0.00,,OVC003,0.00,VWS V14.01,2013-03-15 07:28:00,
2013-03-15 03:30:00,33.3,27.8,29.88,WSW,251,4.0,11.0,80,0.00,,OVC003,0.00,VWS V14.01,2013-03-15 07:30:00,
2013-03-15 03:33:00,32.2,25.8,29.92,SW,220,2.0,3.0,77,0.00,,OVC003,0.00,VWS V14.01,2013-03-15 07:33:00,
2013-03-15 03:35:00,33.4,27.9,29.88,SW,234,6.0,6.0,80,0.00,,OVC003,0.00,VWS V14.01,2013-03-15 07:35:00,
2013-03-15 03:38:00,32.2,26.1,29.92,SW,224,3.0,5.0,78,0.00,,OVC003,0.00,VWS V14.01,2013-03-15 07:38:00,
2013-03-15 03:40:00,33.4,27.9,29.88,WNW,295,7.0,16.0,80,0.00,,OVC003,0.00,VWS V14.01,2013-03-15 07:40:00,
2013-03-15 03:43:00,32.3,26.2,29.92,SW,230,4.0,5.0,78,0.00,,OVC003,0.00,VWS V14.01,2013-03-15 07:43:00,
2013-03-15 03:45:00,33.5,28.0,29.86,West,260,3.0,13.0,80,0.00,,OVC003,0.00,VWS V14.01,2013-03-15 07:45:00,
2013-03-15 03:48:00,32.4,26.3,29.92,SW,218,2.0,5.0,78,0.00,,OVC003,0.00,VWS V14.01,2013-03-15 07:48:00,
2013-03-15 03:50:00,33.6,28.1,29.86,WNW,285,3.0,6.0,80,0.00,,OVC003,0.00,VWS V14.01,2013-03-15 07:50:00,
2013-03-15 03:53:00,32.4,26.6,29.91,SSW,201,8.0,8.0,79,0.00,,OVC003,0.00,VWS V14.01,2013-03-15 07:53:00,
2013-03-15 03:55:00,33.6,28.1,29.86,WSW,253,3.0,5.0,80,0.00,,OVC003,0.00,VWS V14.01,2013-03-15 07:55:00,
2013-03-15 03:58:00,32.5,26.7,29.91,SW,224,5.0,6.0,79,0.00,,OVC003,0.00,VWS V14.01,2013-03-15 07:58:00,
2013-03-15 04:00:00,33.6,28.1,29.86,WNW,298,6.0,13.0,80,0.00,,OVC003,0.00,VWS V14.01,2013-03-15 08:00:00,
2013-03-15 04:03:00,32.6,26.8,29.89,SSW,201,4.0,4.0,79,0.00,,OVC003,0.00,VWS V14.01,2013-03-15 08:03:00,
2013-03-15 04:05:00,33.7,28.5,29.86,South,184,9.0,10.0,81,0.00,,OVC003,0.00,VWS V14.01,2013-03-15 08:05:00,
2013-03-15 04:08:00,32.8,27.3,29.89,WNW,287,4.0,6.0,80,0.00,,OVC003,0.00,VWS V14.01,2013-03-15 08:08:00,
2013-03-15 04:10:00,33.7,28.5,29.86,West,272,6.0,14.0,81,0.00,,OVC003,0.00,VWS V14.01,2013-03-15 08:10:00,
2013-03-15 04:14:00,32.9,27.4,29.89,SW,234,7.0,7.0,80,0.00,,OVC003,0.00,VWS V14.01,2013-03-15 08:14:00,
2013-03-15 04:15:00,33.8,28.6,29.85,SSW,199,3.0,7.0,81,0.00,,OVC003,0.00,VWS V14.01,2013-03-15 08:15:00,
2013-03-15 04:19:00,33.0,27.5,29.89,WSW,239,4.0,5.0,80,0.00,,OVC003,0.00,VWS V14.01,2013-03-15 08:19:00,
2013-03-15 04:20:00,33.8,28.6,29.85,WNW,298,5.0,9.0,81,0.00,,OVC003,0.00,VWS V14.01,2013-03-15 08:20:00,
2013-03-15 04:24:00,33.1,27.6,29.89,NNW,330,3.0,7.0,80,0.00,,OVC003,0.00,VWS V14.01,2013-03-15 08:24:00,
2013-03-15 04:25:00,33.8,28.6,29.85,NW,304,5.0,7.0,81,0.00,,OVC003,0.00,VWS V14.01,2013-03-15 08:25:00,
2013-03-15 04:29:00,33.2,27.7,29.89,SW,232,5.0,6.0,80,0.00,,OVC003,0.00,VWS V14.01,2013-03-15 08:29:00,
2013-03-15 04:30:00,33.8,28.6,29.85,SSW,209,4.0,6.0,81,0.00,,OVC003,0.00,VWS V14.01,2013-03-15 08:30:00,
2013-03-15 04:34:00,33.3,27.8,29.88,West,275,6.0,11.0,80,0.00,,OVC003,0.00,VWS V14.01,2013-03-15 08:34:00,
2013-03-15 04:35:00,33.8,28.6,29.85,WNW,299,5.0,7.0,81,0.00,,OVC003,0.00,VWS V14.01,2013-03-15 08:35:00,
2013-03-15 04:39:00,33.4,27.9,29.88,WSW,251,4.0,4.0,80,0.00,,OVC003,0.00,VWS V14.01,2013-03-15 08:39:00,
2013-03-15 04:40:00,33.8,28.6,29.85,West,272,2.0,7.0,81,0.00,,OVC003,0.00,VWS V14.01,2013-03-15 08:40:00,
2013-03-15 04:44:00,33.4,27.9,29.88,WNW,293,6.0,16.0,80,0.00,,OVC003,0.00,VWS V14.01,2013-03-15 08:44:00,
2013-03-15 04:45:00,33.8,28.6,29.85,NW,312,4.0,10.0,81,0.00,,OVC003,0.00,VWS V14.01,2013-03-15 08:45:00,
2013-03-15 04:49:00,33.5,28.0,29.86,West,260,3.0,13.0,80,0.00,,OVC003,0.00,VWS V14.01,2013-03-15 08:49:00,
2013-03-15 04:50:00,33.8,28.6,29.85,WNW,288,4.0,5.0,81,0.00,,OVC003,0.00,VWS V14.01,2013-03-15 08:50:00,
2013-03-15 04:54:00,33.6,28.1,29.86,WNW,285,3.0,6.0,80,0.00,,OVC003,0.00,VWS V14.01,2013-03-15 08:54:00,
2013-03-15 04:55:00,33.8,28.6,29.85,WSW,253,9.0,9.0,81,0.00,,OVC003,0.00,VWS V14.01,2013-03-15 08:55:00,
2013-03-15 04:59:00,33.6,28.1,29.86,WSW,253,3.0,5.0,80,0.00,,OVC003,0.00,VWS V14.01,2013-03-15 08:59:00,
2013-03-15 05:00:00,33.8,28.6,29.84,SW,233,6.0,13.0,81,0.00,,OVC003,0.00,VWS V14.01,2013-03-15 09:00:00,
2013-03-15 05:04:00,33.6,28.1,29.86,WNW,298,6.0,13.0,80,0.00,,OVC003,0.00,VWS V14.01,2013-03-15 09:04:00,
2013-03-15 05:05:00,33.8,28.3,29.84,SW,217,3.0,7.0,80,0.00,,OVC003,0.00,VWS V14.01,2013-03-15 09:05:00,
2013-03-15 05:09:00,33.7,28.5,29.86,South,184,9.0,10.0,81,0.00,,OVC003,0.00,VWS V14.01,2013-03-15 09:09:00,
2013-03-15 05:10:00,33.8,28.3,29.84,North,2,3.0,12.0,80,0.00,,OVC003,0.00,VWS V14.01,2013-03-15 09:10:00,
2013-03-15 05:14:00,33.8,28.6,29.86,SW,233,6.0,6.0,81,0.00,,OVC003,0.00,VWS V14.01,2013-03-15 09:14:00,
2013-03-15 05:15:00,33.9,28.7,29.84,SW,228,7.0,9.0,81,0.00,,OVC003,0.00,VWS V14.01,2013-03-15 09:15:00,
2013-03-15 05:20:00,33.8,28.6,29.85,East,91,2.0,2.0,81,0.00,,OVC003,0.00,VWS V14.01,2013-03-15 09:20:00,
2013-03-15 05:25:00,33.8,28.6,29.85,WNW,298,5.0,5.0,81,0.00,,OVC003,0.00,VWS V14.01,2013-03-15 09:25:00,
2013-03-15 05:30:00,33.8,28.6,29.85,SW,223,6.0,6.0,81,0.00,,OVC003,0.00,VWS V14.01,2013-03-15 09:30:00,
2013-03-15 05:35:00,33.8,28.6,29.85,SSW,209,4.0,4.0,81,0.00,,OVC003,0.00,VWS V14.01,2013-03-15 09:35:00,
2013-03-15 05:40:00,33.8,28.6,29.85,South,187,5.0,5.0,81,0.00,,OVC003,0.00,VWS V14.01,2013-03-15 09:40:00,
2013-03-15 05:45:00,33.7,28.5,29.85,WSW,241,5.0,10.0,81,0.00,,OVC003,0.00,VWS V14.01,2013-03-15 09:45:00,
2013-03-15 05:50:00,33.8,28.3,29.85,West,279,3.0,5.0,80,0.00,,OVC003,0.00,VWS V14.01,2013-03-15 09:50:00,
2013-03-15 05:55:00,33.8,28.6,29.85,WSW,245,5.0,5.0,81,0.00,,OVC003,0.00,VWS V14.01,2013-03-15 09:55:00,
2013-03-15 06:00:00,33.7,28.5,29.85,WNW,294,6.0,7.0,81,0.00,,OVC003,0.00,VWS V14.01,2013-03-15 10:00:00,
2013-03-15 06:05:00,33.8,28.3,29.84,NW,317,7.0,7.0,80,0.00,,OVC003,0.00,VWS V14.01,2013-03-15 10:05:00,
2013-03-15 06:10:00,33.8,28.3,29.84,WSW,241,5.0,12.0,80,0.00,,OVC003,0.00,VWS V14.01,2013-03-15 10:10:00,
2013-03-15 06:15:00,33.9,28.4,29.84,WSW,255,4.0,4.0,80,0.00,,OVC003,0.00,VWS V14.01,2013-03-15 10:15:00,
2013-03-15 06:20:00,33.9,28.4,29.84,WSW,252,7.0,7.0,80,0.00,,OVC003,0.00,VWS V14.01,2013-03-15 10:20:00,
2013-03-15 06:25:00,33.9,28.4,29.84,SW,232,4.0,4.0,80,0.00,,OVC003,0.00,VWS V14.01,2013-03-15 10:25:00,
2013-03-15 06:30:00,33.9,28.4,29.84,WNW,287,3.0,4.0,80,0.00,,OVC003,0.00,VWS V14.01,2013-03-15 10:30:00,
2013-03-15 06:35:00,33.8,28.6,29.83,SSW,192,5.0,5.0,81,0.00,,OVC003,0.00,VWS V14.01,2013-03-15 10:35:00,
2013-03-15 06:40:00,33.8,28.6,29.83,SW,214,4.0,4.0,81,0.00,,OVC003,0.00,VWS V14.01,2013-03-15 10:40:00,
2013-03-15 06:45:00,33.9,28.7,29.83,SW,225,2.0,9.0,81,0.00,,OVC003,0.00,VWS V14.01,2013-03-15 10:45:00,
2013-03-15 06:46:00,33.8,28.6,29.83,SW,216,6.0,6.0,81,0.00,,OVC003,0.00,VWS V14.01,2013-03-15 10:46:00,
2013-03-15 06:50:00,33.9,28.7,29.83,SSE,162,3.0,4.0,81,0.00,,OVC003,0.00,VWS V14.01,2013-03-15 10:50:00,
2013-03-15 06:51:00,33.8,28.6,29.83,SW,216,5.0,5.0,81,0.00,,OVC003,0.00,VWS V14.01,2013-03-15 10:51:00,
2013-03-15 06:55:00,33.9,28.7,29.83,WSW,253,5.0,5.0,81,0.00,,OVC003,0.00,VWS V14.01,2013-03-15 10:55:00,
2013-03-15 06:56:00,33.8,28.6,29.83,West,267,4.0,4.0,81,0.00,,OVC003,0.00,VWS V14.01,2013-03-15 10:56:00,
2013-03-15 07:00:00,33.9,28.7,29.83,West,278,4.0,6.0,81,0.00,,OVC003,0.00,VWS V14.01,2013-03-15 11:00:00,
2013-03-15 07:01:00,33.7,28.5,29.83,SSW,210,3.0,3.0,81,0.00,,OVC003,0.00,VWS V14.01,2013-03-15 11:01:00,
2013-03-15 07:05:00,34.0,28.8,29.83,WNW,284,3.0,4.0,81,0.00,,OVC003,0.00,VWS V14.01,2013-03-15 11:05:00,
2013-03-15 07:06:00,33.8,28.6,29.83,SW,232,5.0,5.0,81,0.00,,OVC003,0.00,VWS V14.01,2013-03-15 11:06:00,
2013-03-15 07:10:00,34.0,28.8,29.83,WSW,238,2.0,5.0,81,0.00,,OVC003,0.00,VWS V14.01,2013-03-15 11:10:00,
2013-03-15 07:11:00,33.8,28.6,29.83,SW,226,3.0,3.0,81,0.00,,OVC003,0.00,VWS V14.01,2013-03-15 11:11:00,
2013-03-15 07:15:00,34.1,28.9,29.83,WNW,286,4.0,7.0,81,0.00,,OVC003,0.00,VWS V14.01,2013-03-15 11:15:00,
2013-03-15 07:16:00,33.8,28.6,29.83,WSW,244,4.0,4.0,81,0.00,,OVC003,0.00,VWS V14.01,2013-03-15 11:16:00,
2013-03-15 07:20:00,34.1,28.9,29.83,SW,228,4.0,4.0,81,0.00,,OVC003,0.00,VWS V14.01,2013-03-15 11:20:00,
2013-03-15 07:22:00,33.8,28.6,29.83,SW,214,8.0,8.0,81,0.00,,OVC003,0.00,VWS V14.01,2013-03-15 11:22:00,
2013-03-15 07:25:00,34.1,28.9,29.83,SW,229,5.0,5.0,81,0.00,,OVC003,0.00,VWS V14.01,2013-03-15 11:25:00,
2013-03-15 07:27:00,33.9,28.7,29.83,SW,225,3.0,5.0,81,0.00,,OVC003,0.00,VWS V14.01,2013-03-15 11:27:00,
2013-03-15 07:30:00,34.1,28.9,29.83,WSW,257,3.0,5.0,81,0.00,,OVC003,0.00,VWS V14.01,2013-03-15 11:30:00,
2013-03-15 07:32:00,33.9,28.7,29.83,WNW,292,3.0,4.0,81,0.00,,OVC003,0.00,VWS V14.01,2013-03-15 11:32:00,
2013-03-15 07:35:00,34.1,28.9,29.83,WSW,249,6.0,6.0,81,0.00,,OVC003,0.00,VWS V14.01,2013-03-15 11:35:00,
2013-03-15 07:37:00,33.9,28.7,29.83,SW,224,2.0,4.0,81,0.00,,OVC003,0.00,VWS V14.01,2013-03-15 11:37:00,
2013-03-15 07:40:00,34.1,28.9,29.83,WNW,290,2.0,5.0,81,0.00,,OVC003,0.00,VWS V14.01,2013-03-15 11:40:00,
2013-03-15 07:42:00,33.9,28.7,29.83,WSW,251,2.0,5.0,81,0.00,,OVC003,0.00,VWS V14.01,2013-03-15 11:42:00,
2013-03-15 07:45:00,34.2,29.0,29.83,WSW,244,2.0,5.0,81,0.00,,OVC003,0.00,VWS V14.01,2013-03-15 11:45:00,
2013-03-15 07:47:00,33.9,28.7,29.83,WSW,252,2.0,9.0,81,0.00,,OVC003,0.00,VWS V14.01,2013-03-15 11:47:00,
2013-03-15 07:50:00,34.2,29.0,29.83,SSW,196,3.0,4.0,81,0.00,,OVC003,0.00,VWS V14.01,2013-03-15 11:50:00,
2013-03-15 07:52:00,33.9,28.7,29.83,WSW,240,2.0,4.0,81,0.00,,OVC003,0.00,VWS V14.01,2013-03-15 11:52:00,
2013-03-15 07:55:00,34.3,29.1,29.83,SW,232,5.0,5.0,81,0.00,,OVC003,0.00,VWS V14.01,2013-03-15 11:55:00,
2013-03-15 07:57:00,33.9,28.7,29.83,SSW,212,2.0,5.0,81,0.00,,OVC003,0.00,VWS V14.01,2013-03-15 11:57:00,
2013-03-15 08:00:00,34.4,29.2,29.83,SSW,210,3.0,3.0,81,0.00,,OVC003,0.00,VWS V14.01,2013-03-15 12:00:00,
2013-03-15 08:02:00,33.9,28.7,29.83,SW,224,7.0,7.0,81,0.00,,OVC003,0.00,VWS V14.01,2013-03-15 12:02:00,
2013-03-15 08:05:00,34.4,29.2,29.83,SSW,211,3.0,3.0,81,0.00,,OVC003,0.00,VWS V14.01,2013-03-15 12:05:00,
2013-03-15 08:07:00,33.9,28.7,29.83,WNW,284,2.0,4.0,81,0.00,,OVC003,0.00,VWS V14.01,2013-03-15 12:07:00,
2013-03-15 08:10:00,34.4,29.2,29.83,West,280,4.0,5.0,81,0.00,,OVC003,0.00,VWS V14.01,2013-03-15 12:10:00,
2013-03-15 08:12:00,34.0,28.8,29.83,WSW,245,6.0,6.0,81,0.00,,OVC003,0.00,VWS V14.01,2013-03-15 12:12:00,
2013-03-15 08:15:00,34.4,29.2,29.83,West,271,3.0,3.0,81,0.00,,OVC003,0.00,VWS V14.01,2013-03-15 12:15:00,
2013-03-15 08:18:00,34.0,28.8,29.83,NW,322,2.0,3.0,81,0.00,,OVC003,0.00,VWS V14.01,2013-03-15 12:18:00,
2013-03-15 08:20:00,34.4,29.2,29.83,SSW,199,4.0,6.0,81,0.00,,OVC003,0.00,VWS V14.01,2013-03-15 12:20:00,
2013-03-15 08:23:00,34.1,28.9,29.83,WSW,249,2.0,3.0,81,0.00,,OVC003,0.00,VWS V14.01,2013-03-15 12:23:00,
2013-03-15 08:25:00,34.4,29.2,29.83,SSW,209,2.0,6.0,81,0.00,,OVC003,0.00,VWS V14.01,2013-03-15 12:25:00,
2013-03-15 08:28:00,34.1,28.9,29.83,SW,228,2.0,3.0,81,0.00,,OVC003,0.00,VWS V14.01,2013-03-15 12:28:00,
2013-03-15 08:30:00,34.4,29.2,29.83,SSW,209,4.0,4.0,81,0.00,,OVC003,0.00,VWS V14.01,2013-03-15 12:30:00,
2013-03-15 08:33:00,34.1,28.9,29.83,WSW,255,4.0,5.0,81,0.00,,OVC003,0.00,VWS V14.01,2013-03-15 12:33:00,
2013-03-15 08:35:00,34.5,29.3,29.83,West,260,2.0,5.0,81,0.00,,OVC003,0.00,VWS V14.01,2013-03-15 12:35:00,
2013-03-15 08:38:00,34.1,28.9,29.83,South,182,5.0,5.0,81,0.00,,OVC003,0.00,VWS V14.01,2013-03-15 12:38:00,
2013-03-15 08:40:00,34.7,29.5,29.83,WSW,256,5.0,5.0,81,0.00,,OVC003,0.00,VWS V14.01,2013-03-15 12:40:00,
2013-03-15 08:43:00,34.1,28.9,29.83,WNW,290,2.0,5.0,81,0.00,,OVC003,0.00,VWS V14.01,2013-03-15 12:43:00,
2013-03-15 08:45:00,34.7,29.5,29.83,SW,222,5.0,9.0,81,0.00,,OVC003,0.00,VWS V14.01,2013-03-15 12:45:00,
2013-03-15 08:48:00,34.2,29.0,29.83,WSW,244,3.0,5.0,81,0.00,,OVC003,0.00,VWS V14.01,2013-03-15 12:48:00,
2013-03-15 08:50:00,34.7,29.5,29.83,SW,224,3.0,6.0,81,0.00,,OVC003,0.00,VWS V14.01,2013-03-15 12:50:00,
2013-03-15 08:53:00,34.2,29.0,29.83,South,179,2.0,4.0,81,0.00,,OVC003,0.00,VWS V14.01,2013-03-15 12:53:00,
2013-03-15 08:55:00,34.8,29.6,29.83,SW,228,4.0,5.0,81,0.00,,OVC003,0.00,VWS V14.01,2013-03-15 12:55:00,
2013-03-15 08:58:00,34.3,29.1,29.83,WSW,247,2.0,5.0,81,0.00,,OVC003,0.00,VWS V14.01,2013-03-15 12:58:00,
2013-03-15 09:00:00,34.8,29.6,29.83,SSW,209,3.0,5.0,81,0.00,,OVC003,0.00,VWS V14.01,2013-03-15 13:00:00,
2013-03-15 09:03:00,34.4,29.2,29.83,SSW,210,2.0,3.0,81,0.00,,OVC003,0.00,VWS V14.01,2013-03-15 13:03:00,
2013-03-15 09:05:00,34.8,29.6,29.83,SW,220,3.0,4.0,81,0.00,,OVC003,0.00,VWS V14.01,2013-03-15 13:05:00,
2013-03-15 09:08:00,34.4,29.2,29.83,SSW,211,5.0,5.0,81,0.00,,OVC003,0.00,VWS V14.01,2013-03-15 13:08:00,
2013-03-15 09:10:00,34.8,29.6,29.83,WSW,255,3.0,3.0,81,0.00,,OVC003,0.00,VWS V14.01,2013-03-15 13:10:00,
2013-03-15 09:13:00,34.4,29.2,29.83,WNW,293,3.0,5.0,81,0.00,,OVC003,0.00,VWS V14.01,2013-03-15 13:13:00,
2013-03-15 09:15:00,34.8,29.6,29.83,WSW,255,4.0,4.0,81,0.00,,OVC003,0.00,VWS V14.01,2013-03-15 13:15:00,
2013-03-15 09:19:00,34.4,29.2,29.83,WSW,245,2.0,3.0,81,0.00,,OVC003,0.00,VWS V14.01,2013-03-15 13:19:00,
2013-03-15 09:20:00,34.9,29.7,29.83,WSW,256,4.0,4.0,81,0.00,,OVC003,0.00,VWS V14.01,2013-03-15 13:20:00,
2013-03-15 09:24:00,34.4,29.2,29.83,South,185,2.0,6.0,81,0.00,,OVC003,0.00,VWS V14.01,2013-03-15 13:24:00,
2013-03-15 09:25:00,34.9,29.7,29.83,WNW,287,2.0,9.0,81,0.00,,OVC003,0.00,VWS V14.01,2013-03-15 13:25:00,
2013-03-15 09:29:00,34.4,29.2,29.83,SSW,207,4.0,6.0,81,0.00,,OVC003,0.00,VWS V14.01,2013-03-15 13:29:00,
2013-03-15 09:30:00,35.0,29.8,29.83,NW,307,4.0,4.0,81,0.00,,OVC003,0.00,VWS V14.01,2013-03-15 13:30:00,
2013-03-15 09:34:00,34.4,29.2,29.83,SSW,209,2.0,4.0,81,0.00,,OVC003,0.00,VWS V14.01,2013-03-15 13:34:00,
2013-03-15 09:35:00,35.1,29.9,29.83,WNW,291,3.0,5.0,81,0.00,,OVC003,0.00,VWS V14.01,2013-03-15 13:35:00,
2013-03-15 09:39:00,34.6,29.4,29.83,West,260,2.0,5.0,81,0.00,,OVC003,0.00,VWS V14.01,2013-03-15 13:39:00,
2013-03-15 09:40:00,35.1,29.9,29.83,WSW,246,4.0,4.0,81,0.00,,OVC003,0.00,VWS V14.01,2013-03-15 13:40:00,
2013-03-15 09:44:00,34.7,29.5,29.83,West,268,4.0,4.0,81,0.00,,OVC003,0.00,VWS V14.01,2013-03-15 13:44:00,
2013-03-15 09:45:00,35.2,30.0,29.83,SW,220,2.0,5.0,81,0.00,,OVC003,0.00,VWS V14.01,2013-03-15 13:45:00,
2013-03-15 09:49:00,34.7,29.5,29.83,SW,222,5.0,9.0,81,0.00,,OVC003,0.00,VWS V14.01,2013-03-15 13:49:00,
2013-03-15 09:50:00,35.3,29.8,29.83,SW,230,2.0,4.0,80,0.00,,OVC003,0.00,VWS V14.01,2013-03-15 13:50:00,
2013-03-15 09:54:00,34.7,29.5,29.83,SW,224,3.0,6.0,81,0.00,,OVC003,0.00,VWS V14.01,2013-03-15 13:54:00,
2013-03-15 09:55:00,35.4,29.9,29.83,SSW,213,3.0,6.0,80,0.00,,OVC003,0.00,VWS V14.01,2013-03-15 13:55:00,
2013-03-15 09:59:00,34.8,29.6,29.83,SW,228,4.0,5.0,81,0.00,,OVC003,0.00,VWS V14.01,2013-03-15 13:59:00,
2013-03-15 10:00:00,35.6,30.0,29.83,NW,317,2.0,7.0,80,0.00,,OVC003,0.00,VWS V14.01,2013-03-15 14:00:00,
2013-03-15 10:05:00,34.8,29.6,29.83,WSW,247,3.0,3.0,81,0.00,,OVC003,0.00,VWS V14.01,2013-03-15 14:05:00,
2013-03-15 10:10:00,34.8,29.6,29.83,SW,220,2.0,2.0,81,0.00,,OVC003,0.00,VWS V14.01,2013-03-15 14:10:00,
2013-03-15 10:15:00,34.8,29.6,29.83,WSW,255,2.0,2.0,81,0.00,,OVC003,0.00,VWS V14.01,2013-03-15 14:15:00,
2013-03-15 10:20:00,34.8,29.6,29.83,SW,224,2.0,3.0,81,0.00,,OVC003,0.00,VWS V14.01,2013-03-15 14:20:00,
2013-03-15 10:25:00,34.9,29.7,29.83,WSW,256,4.0,4.0,81,0.00,,OVC003,0.00,VWS V14.01,2013-03-15 14:25:00,
2013-03-15 10:30:00,34.9,29.7,29.83,WNW,287,2.0,2.0,81,0.00,,OVC003,0.00,VWS V14.01,2013-03-15 14:30:00,
2013-03-15 10:35:00,35.0,29.8,29.83,SW,222,4.0,4.0,81,0.00,,OVC003,0.00,VWS V14.01,2013-03-15 14:35:00,
2013-03-15 10:40:00,36.2,30.3,29.84,SW,220,3.0,4.0,79,0.00,,OVC003,0.00,VWS V14.01,2013-03-15 14:40:00,
2013-03-15 10:41:00,35.1,29.9,29.83,NW,307,2.0,4.0,81,0.00,,OVC003,0.00,VWS V14.01,2013-03-15 14:41:00,
2013-03-15 10:45:00,36.3,30.1,29.83,WSW,257,2.0,4.0,78,0.00,,OVC003,0.00,VWS V14.01,2013-03-15 14:45:00,
2013-03-15 10:47:00,35.2,29.7,29.83,SW,220,3.0,5.0,80,0.00,,OVC003,0.00,VWS V14.01,2013-03-15 14:47:00,
2013-03-15 10:50:00,36.5,30.3,29.83,SW,218,4.0,4.0,78,0.00,,OVC003,0.00,VWS V14.01,2013-03-15 14:50:00,
2013-03-15 10:52:00,35.3,29.8,29.83,SW,231,2.0,4.0,80,0.00,,OVC003,0.00,VWS V14.01,2013-03-15 14:52:00,
2013-03-15 10:55:00,36.6,30.4,29.83,SW,218,2.0,5.0,78,0.00,,OVC003,0.00,VWS V14.01,2013-03-15 14:55:00,
2013-03-15 10:57:00,35.4,29.9,29.83,West,260,3.0,6.0,80,0.00,,OVC003,0.00,VWS V14.01,2013-03-15 14:57:00,
2013-03-15 11:00:00,36.8,30.6,29.83,West,268,2.0,2.0,78,0.00,,OVC003,0.00,VWS V14.01,2013-03-15 15:00:00,
2013-03-15 11:02:00,35.5,30.0,29.83,NW,317,2.0,7.0,80,0.00,,OVC003,0.00,VWS V14.01,2013-03-15 15:02:00,
2013-03-15 11:05:00,36.9,30.4,29.83,SSW,198,2.0,5.0,77,0.00,,OVC003,0.00,VWS V14.01,2013-03-15 15:05:00,
2013-03-15 11:08:00,35.7,30.1,29.83,WSW,247,6.0,6.0,80,0.00,,OVC003,0.00,VWS V14.01,2013-03-15 15:08:00,
2013-03-15 11:10:00,37.0,30.5,29.83,WSW,246,5.0,5.0,77,0.00,,OVC003,0.00,VWS V14.01,2013-03-15 15:10:00,
2013-03-15 11:13:00,35.8,29.9,29.83,WSW,254,5.0,5.0,79,0.00,,OVC003,0.00,VWS V14.01,2013-03-15 15:13:00,
2013-03-15 11:15:00,37.1,30.6,29.83,WSW,246,4.0,5.0,77,0.00,,OVC003,0.00,VWS V14.01,2013-03-15 15:15:00,
2013-03-15 11:18:00,35.9,30.0,29.84,SW,214,6.0,6.0,79,0.00,,OVC003,0.00,VWS V14.01,2013-03-15 15:18:00,
2013-03-15 11:20:00,37.1,30.2,29.83,WSW,247,2.0,4.0,76,0.00,,OVC003,0.00,VWS V14.01,2013-03-15 15:20:00,
2013-03-15 11:23:00,35.9,30.0,29.84,West,263,3.0,7.0,79,0.00,,OVC003,0.00,VWS V14.01,2013-03-15 15:23:00,
2013-03-15 11:25:00,37.1,30.2,29.83,SW,226,2.0,3.0,76,0.00,,OVC003,0.00,VWS V14.01,2013-03-15 15:25:00,
2013-03-15 11:28:00,36.0,30.1,29.84,West,280,3.0,7.0,79,0.00,,OVC003,0.00,VWS V14.01,2013-03-15 15:28:00,
2013-03-15 11:30:00,37.2,30.3,29.83,SW,227,3.0,3.0,76,0.00,,OVC003,0.00,VWS V14.01,2013-03-15 15:30:00,
2013-03-15 11:33:00,36.0,30.1,29.84,West,280,4.0,7.0,79,0.00,,OVC003,0.00,VWS V14.01,2013-03-15 15:33:00,
2013-03-15 11:35:00,37.3,30.4,29.83,SSW,198,2.0,2.0,76,0.00,,OVC003,0.00,VWS V14.01,2013-03-15 15:35:00,
2013-03-15 11:38:00,36.1,30.2,29.84,WNW,288,5.0,5.0,79,0.00,,OVC003,0.00,VWS V14.01,2013-03-15 15:38:00,
2013-03-15 11:40:00,37.4,30.5,29.83,SW,232,2.0,4.0,76,0.00,,OVC003,0.00,VWS V14.01,2013-03-15 15:40:00,
2013-03-15 11:44:00,36.2,30.3,29.84,SW,220,2.0,4.0,79,0.00,,OVC003,0.00,VWS V14.01,2013-03-15 15:44:00,
2013-03-15 11:45:00,37.5,30.6,29.83,SW,232,3.0,3.0,76,0.00,,OVC003,0.00,VWS V14.01,2013-03-15 15:45:00,
2013-03-15 11:49:00,36.3,30.1,29.83,WSW,258,3.0,4.0,78,0.00,,OVC003,0.00,VWS V14.01,2013-03-15 15:49:00,
2013-03-15 11:50:00,37.5,30.3,29.83,SW,230,2.0,2.0,75,0.00,,OVC003,0.00,VWS V14.01,2013-03-15 15:50:00,
2013-03-15 11:54:00,36.5,30.3,29.83,SW,230,6.0,6.0,78,0.00,,OVC003,0.00,VWS V14.01,2013-03-15 15:54:00,
2013-03-15 11:55:00,37.6,30.7,29.83,SW,231,2.0,2.0,76,0.00,,OVC003,0.00,VWS V14.01,2013-03-15 15:55:00,
2013-03-15 11:59:00,36.6,30.4,29.83,SW,218,2.0,5.0,78,0.00,,OVC003,0.00,VWS V14.01,2013-03-15 15:59:00,
2013-03-15 12:00:00,37.7,30.8,29.83,SW,230,2.0,2.0,76,0.00,,OVC003,0.00,VWS V14.01,2013-03-15 16:00:00,
2013-03-15 12:04:00,36.8,30.6,29.83,West,267,2.0,2.0,78,0.00,,OVC003,0.00,VWS V14.01,2013-03-15 16:04:00,
2013-03-15 12:05:00,37.9,30.7,29.83,NW,306,3.0,3.0,75,0.00,,OVC003,0.00,VWS V14.01,2013-03-15 16:05:00,
2013-03-15 12:09:00,36.9,30.4,29.83,SSW,198,3.0,5.0,77,0.00,,OVC003,0.00,VWS V14.01,2013-03-15 16:09:00,
2013-03-15 12:10:00,37.9,30.7,29.83,West,272,2.0,3.0,75,0.00,,OVC003,0.00,VWS V14.01,2013-03-15 16:10:00,
2013-03-15 12:14:00,37.0,30.5,29.83,SW,232,5.0,5.0,77,0.00,,OVC003,0.00,VWS V14.01,2013-03-15 16:14:00,
2013-03-15 12:15:00,37.9,30.7,29.83,South,186,2.0,3.0,75,0.00,,OVC003,0.00,VWS V14.01,2013-03-15 16:15:00,
2013-03-15 12:19:00,37.1,30.6,29.83,WSW,246,4.0,5.0,77,0.00,,OVC003,0.00,VWS V14.01,2013-03-15 16:19:00,
2013-03-15 12:20:00,37.9,30.7,29.83,NE,45,2.0,2.0,75,0.00,,OVC003,0.00,VWS V14.01,2013-03-15 16:20:00,
2013-03-15 12:24:00,37.1,30.2,29.83,WSW,247,2.0,4.0,76,0.00,,OVC003,0.00,VWS V14.01,2013-03-15 16:24:00,
2013-03-15 12:25:00,37.9,30.7,29.83,SSE,149,3.0,3.0,75,0.00,,OVC003,0.00,VWS V14.01,2013-03-15 16:25:00,
2013-03-15 12:29:00,37.1,30.2,29.83,SW,227,3.0,3.0,76,0.00,,OVC003,0.00,VWS V14.01,2013-03-15 16:29:00,
2013-03-15 12:30:00,37.8,30.6,29.83,SW,221,2.0,2.0,75,0.00,,OVC003,0.00,VWS V14.01,2013-03-15 16:30:00,
2013-03-15 12:34:00,37.1,30.2,29.83,SW,227,2.0,2.0,76,0.00,,OVC003,0.00,VWS V14.01,2013-03-15 16:34:00,
2013-03-15 12:35:00,37.8,30.6,29.83,SW,221,2.0,2.0,75,0.00,,OVC003,0.00,VWS V14.01,2013-03-15 16:35:00,
2013-03-15 12:39:00,37.3,30.4,29.83,SSW,198,2.0,2.0,76,0.00,,OVC003,0.00,VWS V14.01,2013-03-15 16:39:00,
2013-03-15 12:40:00,37.9,30.7,29.83,NE,53,2.0,3.0,75,0.00,,OVC003,0.00,VWS V14.01,2013-03-15 16:40:00,
2013-03-15 12:44:00,37.4,30.5,29.83,SW,232,2.0,4.0,76,0.00,,OVC003,0.00,VWS V14.01,2013-03-15 16:44:00,
2013-03-15 12:45:00,37.8,30.6,29.82,SSE,151,2.0,4.0,75,0.00,,OVC003,0.00,VWS V14.01,2013-03-15 16:45:00,
2013-03-15 12:49:00,37.5,30.6,29.83,SW,232,3.0,3.0,76,0.00,,OVC003,0.00,VWS V14.01,2013-03-15 16:49:00,
2013-03-15 12:50:00,37.8,30.3,29.82,SSW,204,2.0,3.0,74,0.00,,OVC003,0.00,VWS V14.01,2013-03-15 16:50:00,
2013-03-15 12:54:00,37.5,30.3,29.83,SW,230,2.0,2.0,75,0.00,,OVC003,0.00,VWS V14.01,2013-03-15 16:54:00,
2013-03-15 12:55:00,37.9,30.4,29.82,SSW,203,2.0,2.0,74,0.00,,OVC003,0.00,VWS V14.01,2013-03-15 16:55:00,
2013-03-15 13:00:00,37.6,30.7,29.83,SW,230,2.0,0.0,76,0.00,,OVC003,0.00,VWS V14.01,2013-03-15 17:00:00,
2013-03-15 13:05:00,37.7,30.8,29.83,SW,231,2.0,0.0,76,0.00,,OVC003,0.00,VWS V14.01,2013-03-15 17:05:00,
2013-03-15 13:10:00,37.9,30.7,29.83,West,263,2.0,2.0,75,0.00,,OVC003,0.00,VWS V14.01,2013-03-15 17:10:00,
2013-03-15 13:15:00,37.9,30.7,29.83,West,271,2.0,0.0,75,0.00,,OVC003,0.00,VWS V14.01,2013-03-15 17:15:00,
2013-03-15 13:20:00,37.9,30.7,29.83,South,186,2.0,2.0,75,0.00,,OVC003,0.00,VWS V14.01,2013-03-15 17:20:00,
2013-03-15 13:25:00,37.9,30.7,29.83,NE,46,3.0,3.0,75,0.00,,OVC003,0.00,VWS V14.01,2013-03-15 17:25:00,
2013-03-15 13:30:00,37.9,30.7,29.83,SSE,149,3.0,3.0,75,0.00,,OVC003,0.00,VWS V14.01,2013-03-15 17:30:00,
2013-03-15 13:35:00,37.8,30.3,29.83,SW,221,2.0,0.0,74,0.00,,OVC003,0.00,VWS V14.01,2013-03-15 17:35:00,
2013-03-15 13:40:00,37.8,30.6,29.83,SW,221,2.0,0.0,75,0.00,,OVC003,0.00,VWS V14.01,2013-03-15 17:40:00,
2013-03-15 13:45:00,37.9,30.7,29.83,NNE,32,5.0,5.0,75,0.00,,OVC003,0.00,VWS V14.01,2013-03-15 17:45:00,
2013-03-15 13:50:00,37.8,30.3,29.82,SSE,151,3.0,3.0,74,0.00,,OVC003,0.00,VWS V14.01,2013-03-15 17:50:00,
2013-03-15 13:55:00,37.8,30.3,29.82,SSW,204,2.0,2.0,74,0.00,,OVC003,0.00,VWS V14.01,2013-03-15 17:55:00,
2013-03-15 14:00:00,37.9,30.4,29.82,SSW,204,2.0,0.0,74,0.00,,OVC003,0.00,VWS V14.01,2013-03-15 18:00:00,
2013-03-15 14:05:00,37.9,30.4,29.82,NNW,336,2.0,0.0,74,0.00,,OVC003,0.00,VWS V14.01,2013-03-15 18:05:00,
2013-03-15 14:10:00,38.0,30.5,29.82,North,9,2.0,3.0,74,0.00,,OVC003,0.00,VWS V14.01,2013-03-15 18:10:00,
2013-03-15 14:15:00,37.7,29.8,29.82,NE,39,2.0,2.0,73,0.00,,OVC003,0.00,VWS V14.01,2013-03-15 18:15:00,
2013-03-15 14:16:00,37.9,30.4,29.82,NE,47,2.0,2.0,74,0.00,,OVC003,0.00,VWS V14.01,2013-03-15 18:16:00,
2013-03-15 14:20:00,37.7,29.5,29.82,NNW,340,2.0,2.0,72,0.00,,OVC003,0.00,VWS V14.01,2013-03-15 18:20:00,
2013-03-15 14:21:00,37.9,30.4,29.82,ESE,122,2.0,0.0,74,0.00,,OVC003,0.00,VWS V14.01,2013-03-15 18:21:00,
2013-03-15 14:25:00,37.8,29.2,29.82,NNW,338,3.0,3.0,71,0.00,,OVC003,0.00,VWS V14.01,2013-03-15 18:25:00,
2013-03-15 14:26:00,37.9,30.4,29.82,WSW,255,3.0,3.0,74,0.00,,OVC003,0.00,VWS V14.01,2013-03-15 18:26:00,
2013-03-15 14:30:00,38.0,29.1,29.82,NE,55,2.0,3.0,70,0.00,,OVC003,0.00,VWS V14.01,2013-03-15 18:30:00,
2013-03-15 14:31:00,38.0,30.5,29.82,WSW,255,2.0,0.0,74,0.00,,OVC003,0.00,VWS V14.01,2013-03-15 18:31:00,
2013-03-15 14:35:00,38.1,28.8,29.82,SW,216,3.0,4.0,69,0.00,,OVC003,0.00,VWS V14.01,2013-03-15 18:35:00,
2013-03-15 14:36:00,38.1,30.6,29.82,WNW,299,2.0,2.0,74,0.00,,OVC003,0.00,VWS V14.01,2013-03-15 18:36:00,
2013-03-15 14:40:00,38.2,28.6,29.82,WNW,290,4.0,5.0,68,0.00,,OVC003,0.00,VWS V14.01,2013-03-15 18:40:00,
2013-03-15 14:42:00,38.1,30.2,29.82,South,184,2.0,2.0,73,0.00,,OVC003,0.00,VWS V14.01,2013-03-15 18:42:00,
2013-03-15 14:45:00,38.3,28.7,29.82,West,279,2.0,4.0,68,0.00,,OVC003,0.00,VWS V14.01,2013-03-15 18:45:00,
2013-03-15 14:47:00,38.1,30.2,29.82,NE,39,3.0,3.0,73,0.00,,OVC003,0.00,VWS V14.01,2013-03-15 18:47:00,
2013-03-15 14:50:00,38.4,28.8,29.82,SW,230,6.0,6.0,68,0.00,,OVC003,0.00,VWS V14.01,2013-03-15 18:50:00,
2013-03-15 14:52:00,38.0,30.1,29.82,NE,40,2.0,2.0,73,0.00,,OVC003,0.00,VWS V14.01,2013-03-15 18:52:00,
2013-03-15 14:55:00,38.5,28.5,29.82,SSW,207,2.0,6.0,67,0.00,,OVC003,0.00,VWS V14.01,2013-03-15 18:55:00,
2013-03-15 14:57:00,37.8,29.9,29.82,NE,39,2.0,2.0,73,0.00,,OVC003,0.00,VWS V14.01,2013-03-15 18:57:00,
2013-03-15 15:00:00,38.6,28.2,29.81,WNW,290,2.0,4.0,66,0.00,,OVC003,0.00,VWS V14.01,2013-03-15 19:00:00,
2013-03-15 15:02:00,37.8,29.9,29.82,NE,39,2.0,2.0,73,0.00,,OVC003,0.00,VWS V14.01,2013-03-15 19:02:00,
2013-03-15 15:05:00,38.8,28.1,29.81,WSW,247,3.0,6.0,65,0.00,,OVC003,0.00,VWS V14.01,2013-03-15 19:05:00,
2013-03-15 15:08:00,37.7,29.8,29.82,NE,39,4.0,4.0,73,0.00,,OVC003,0.00,VWS V14.01,2013-03-15 19:08:00,
2013-03-15 15:10:00,38.9,28.1,29.81,SW,231,4.0,4.0,65,0.00,,OVC003,0.00,VWS V14.01,2013-03-15 19:10:00,
2013-03-15 15:13:00,37.7,29.8,29.82,NE,39,2.0,0.0,73,0.00,,OVC003,0.00,VWS V14.01,2013-03-15 19:13:00,
2013-03-15 15:15:00,39.1,28.0,29.81,SW,218,7.0,7.0,64,0.00,,OVC003,0.00,VWS V14.01,2013-03-15 19:15:00,
2013-03-15 15:18:00,37.7,29.8,29.82,NE,39,2.0,2.0,73,0.00,,OVC003,0.00,VWS V14.01,2013-03-15 19:18:00,
2013-03-15 15:20:00,39.3,28.2,29.81,North,5,3.0,5.0,64,0.00,,OVC003,0.00,VWS V14.01,2013-03-15 19:20:00,
2013-03-15 15:23:00,37.7,29.8,29.82,NNW,340,2.0,2.0,73,0.00,,OVC003,0.00,VWS V14.01,2013-03-15 19:23:00,
2013-03-15 15:25:00,39.4,28.2,29.81,SW,230,2.0,7.0,64,0.00,,OVC003,0.00,VWS V14.01,2013-03-15 19:25:00,
2013-03-15 15:28:00,37.8,29.6,29.82,NNW,340,2.0,2.0,72,0.00,,OVC003,0.00,VWS V14.01,2013-03-15 19:28:00,
2013-03-15 15:30:00,39.5,28.0,29.81,SSW,206,5.0,5.0,63,0.00,,OVC003,0.00,VWS V14.01,2013-03-15 19:30:00,
2013-03-15 15:33:00,38.0,29.1,29.82,NE,55,3.0,3.0,70,0.00,,OVC003,0.00,VWS V14.01,2013-03-15 19:33:00,
2013-03-15 15:35:00,39.6,28.1,29.81,West,261,5.0,6.0,63,0.00,,OVC003,0.00,VWS V14.01,2013-03-15 19:35:00,
2013-03-15 15:38:00,38.1,28.8,29.82,SW,216,2.0,4.0,69,0.00,,OVC003,0.00,VWS V14.01,2013-03-15 19:38:00,
2013-03-15 15:40:00,40.0,28.4,29.81,SW,222,4.0,5.0,63,0.00,,OVC003,0.00,VWS V14.01,2013-03-15 19:40:00,
2013-03-15 15:43:00,38.2,28.6,29.82,West,272,5.0,5.0,68,0.00,,OVC003,0.00,VWS V14.01,2013-03-15 19:43:00,
2013-03-15 15:45:00,40.2,28.2,29.81,NW,312,3.0,8.0,62,0.00,,OVC003,0.00,VWS V14.01,2013-03-15 19:45:00,
2013-03-15 15:48:00,38.3,28.7,29.82,WSW,254,5.0,5.0,68,0.00,,OVC003,0.00,VWS V14.01,2013-03-15 19:48:00,
2013-03-15 15:50:00,40.2,28.2,29.81,West,259,2.0,6.0,62,0.00,,OVC003,0.00,VWS V14.01,2013-03-15 19:50:00,
2013-03-15 15:53:00,38.4,28.8,29.82,SSW,197,6.0,6.0,68,0.00,,OVC003,0.00,VWS V14.01,2013-03-15 19:53:00,
2013-03-15 15:55:00,40.4,28.0,29.81,SW,226,3.0,3.0,61,0.00,,OVC003,0.00,VWS V14.01,2013-03-15 19:55:00,
2013-03-15 15:58:00,38.5,28.5,29.82,SSW,201,3.0,6.0,67,0.00,,OVC003,0.00,VWS V14.01,2013-03-15 19:58:00,
2013-03-15 16:00:00,40.6,27.8,29.81,South,182,2.0,5.0,60,0.00,,OVC003,0.00,VWS V14.01,2013-03-15 20:00:00,
2013-03-15 16:03:00,38.6,28.6,29.82,WNW,290,3.0,4.0,67,0.00,,OVC003,0.00,VWS V14.01,2013-03-15 20:03:00,
2013-03-15 16:05:00,40.8,28.0,29.81,WSW,248,4.0,7.0,60,0.00,,OVC003,0.00,VWS V14.01,2013-03-15 20:05:00,
2013-03-15 16:08:00,38.8,28.4,29.81,WSW,240,5.0,6.0,66,0.00,,OVC003,0.00,VWS V14.01,2013-03-15 20:08:00,
2013-03-15 16:10:00,40.7,27.9,29.81,SW,232,4.0,9.0,60,0.00,,OVC003,0.00,VWS V14.01,2013-03-15 20:10:00,
2013-03-15 16:13:00,38.9,28.5,29.81,NE,40,3.0,4.0,66,0.00,,OVC003,0.00,VWS V14.01,2013-03-15 20:13:00,
2013-03-15 16:15:00,40.6,27.4,29.81,West,261,2.0,7.0,59,0.00,,OVC003,0.00,VWS V14.01,2013-03-15 20:15:00,
2013-03-15 16:19:00,39.1,28.3,29.81,SW,222,4.0,7.0,65,0.00,,OVC003,0.00,VWS V14.01,2013-03-15 20:19:00,
2013-03-15 16:20:00,40.5,27.7,29.81,WSW,244,2.0,4.0,60,0.00,,OVC003,0.00,VWS V14.01,2013-03-15 20:20:00,
2013-03-15 16:24:00,39.3,28.2,29.81,NNE,20,3.0,5.0,64,0.00,,OVC003,0.00,VWS V14.01,2013-03-15 20:24:00,
2013-03-15 16:25:00,40.3,27.5,29.81,SW,226,3.0,9.0,60,0.00,,OVC003,0.00,VWS V14.01,2013-03-15 20:25:00,
2013-03-15 16:29:00,39.4,28.2,29.81,SW,229,2.0,7.0,64,0.00,,OVC003,0.00,VWS V14.01,2013-03-15 20:29:00,
2013-03-15 16:30:00,40.1,27.3,29.81,WSW,249,3.0,4.0,60,0.00,,OVC003,0.00,VWS V14.01,2013-03-15 20:30:00,
2013-03-15 16:34:00,39.5,28.0,29.81,SSW,205,2.0,4.0,63,0.00,,OVC003,0.00,VWS V14.01,2013-03-15 20:34:00,
2013-03-15 16:35:00,40.1,26.9,29.81,South,187,3.0,3.0,59,0.00,,OVC003,0.00,VWS V14.01,2013-03-15 20:35:00,
2013-03-15 16:39:00,39.6,28.1,29.81,WSW,238,8.0,8.0,63,0.00,,OVC003,0.00,VWS V14.01,2013-03-15 20:39:00,
2013-03-15 16:40:00,40.1,26.5,29.81,SW,230,2.0,6.0,58,0.00,,OVC003,0.00,VWS V14.01,2013-03-15 20:40:00,
2013-03-15 16:44:00,40.0,28.4,29.81,SW,223,5.0,5.0,63,0.00,,OVC003,0.00,VWS V14.01,2013-03-15 20:44:00,
2013-03-15 16:45:00,40.2,26.2,29.81,SSW,209,7.0,7.0,57,0.00,,OVC003,0.00,VWS V14.01,2013-03-15 20:45:00,
2013-03-15 16:49:00,40.2,28.2,29.81,NW,312,3.0,8.0,62,0.00,,OVC003,0.00,VWS V14.01,2013-03-15 20:49:00,
2013-03-15 16:50:00,40.4,26.0,29.81,SSE,165,2.0,6.0,56,0.00,,OVC003,0.00,VWS V14.01,2013-03-15 20:50:00,
2013-03-15 16:54:00,40.2,28.2,29.81,West,259,2.0,6.0,62,0.00,,OVC003,0.00,VWS V14.01,2013-03-15 20:54:00,
2013-03-15 16:55:00,40.5,26.0,29.81,SW,234,3.0,3.0,56,0.00,,OVC003,0.00,VWS V14.01,2013-03-15 20:55:00,
2013-03-15 16:59:00,40.4,28.0,29.81,SW,226,2.0,2.0,61,0.00,,OVC003,0.00,VWS V14.01,2013-03-15 20:59:00,
2013-03-15 17:00:00,40.4,26.0,29.81,WSW,240,3.0,6.0,56,0.00,,OVC003,0.00,VWS V14.01,2013-03-15 21:00:00,
2013-03-15 17:04:00,40.6,27.8,29.81,South,182,2.0,5.0,60,0.00,,OVC003,0.00,VWS V14.01,2013-03-15 21:04:00,
2013-03-15 17:05:00,40.1,25.7,29.81,SW,220,3.0,4.0,56,0.00,,OVC003,0.00,VWS V14.01,2013-03-15 21:05:00,
2013-03-15 17:09:00,40.8,28.0,29.81,WSW,248,4.0,7.0,60,0.00,,OVC003,0.00,VWS V14.01,2013-03-15 21:09:00,
2013-03-15 17:10:00,39.9,25.9,29.81,WNW,284,3.0,4.0,57,0.00,,OVC003,0.00,VWS V14.01,2013-03-15 21:10:00,
2013-03-15 17:14:00,40.7,27.9,29.81,SW,232,4.0,9.0,60,0.00,,OVC003,0.00,VWS V14.01,2013-03-15 21:14:00,
2013-03-15 17:15:00,39.9,25.5,29.81,WSW,237,4.0,4.0,56,0.00,,OVC003,0.00,VWS V14.01,2013-03-15 21:15:00,
2013-03-15 17:19:00,40.6,27.4,29.81,West,261,2.0,7.0,59,0.00,,OVC003,0.00,VWS V14.01,2013-03-15 21:19:00,
2013-03-15 17:20:00,39.8,25.4,29.81,WSW,241,5.0,7.0,56,0.00,,OVC003,0.00,VWS V14.01,2013-03-15 21:20:00,
2013-03-15 17:25:00,40.4,27.6,29.81,WSW,245,4.0,4.0,60,0.00,,OVC003,0.00,VWS V14.01,2013-03-15 21:25:00,
2013-03-15 17:30:00,40.3,27.5,29.81,SW,226,2.0,2.0,60,0.00,,OVC003,0.00,VWS V14.01,2013-03-15 21:30:00,
2013-03-15 17:35:00,40.1,27.4,29.81,WSW,250,2.0,2.0,60,0.00,,OVC003,0.00,VWS V14.01,2013-03-15 21:35:00,
2013-03-15 17:40:00,40.1,26.9,29.81,South,187,2.0,2.0,59,0.00,,OVC003,0.00,VWS V14.01,2013-03-15 21:40:00,
2013-03-15 17:45:00,40.2,26.6,29.81,SW,231,3.0,3.0,58,0.00,,OVC003,0.00,VWS V14.01,2013-03-15 21:45:00,
2013-03-15 17:50:00,40.3,26.3,29.81,SSW,200,3.0,5.0,57,0.00,,OVC003,0.00,VWS V14.01,2013-03-15 21:50:00,
2013-03-15 17:55:00,40.4,26.0,29.81,SW,218,3.0,3.0,56,0.00,,OVC003,0.00,VWS V14.01,2013-03-15 21:55:00,
2013-03-15 18:00:00,40.5,26.0,29.81,WSW,249,5.0,5.0,56,0.00,,OVC003,0.00,VWS V14.01,2013-03-15 22:00:00,
2013-03-15 18:05:00,40.3,25.9,29.81,West,264,2.0,4.0,56,0.00,,OVC003,0.00,VWS V14.01,2013-03-15 22:05:00,
2013-03-15 18:10:00,40.1,25.7,29.81,SSW,198,4.0,4.0,56,0.00,,OVC003,0.00,VWS V14.01,2013-03-15 22:10:00,
2013-03-15 18:15:00,39.9,25.9,29.81,WNW,283,2.0,2.0,57,0.00,,OVC003,0.00,VWS V14.01,2013-03-15 22:15:00,
2013-03-15 18:20:00,39.8,25.4,29.81,SSW,194,4.0,4.0,56,0.00,,OVC003,0.00,VWS V14.01,2013-03-15 22:20:00,
2013-03-15 18:25:00,39.8,25.0,29.81,West,275,2.0,7.0,55,0.00,,OVC003,0.00,VWS V14.01,2013-03-15 22:25:00,
2013-03-15 18:30:00,39.7,24.9,29.81,NW,317,2.0,0.0,55,0.00,,OVC003,0.00,VWS V14.01,2013-03-15 22:30:00,
2013-03-15 18:35:00,37.2,22.1,29.81,NNE,19,2.0,3.0,54,0.00,,OVC003,0.00,VWS V14.01,2013-03-15 22:35:00,
2013-03-15 18:36:00,39.7,24.9,29.81,West,267,2.0,5.0,55,0.00,,OVC003,0.00,VWS V14.01,2013-03-15 22:36:00,
2013-03-15 18:40:00,37.0,21.9,29.81,NNW,343,3.0,4.0,54,0.00,,OVC003,0.00,VWS V14.01,2013-03-15 22:40:00,
2013-03-15 18:42:00,39.6,24.3,29.81,WSW,251,2.0,2.0,54,0.00,,OVC003,0.00,VWS V14.01,2013-03-15 22:42:00,
2013-03-15 18:45:00,36.9,22.3,29.83,NE,39,3.0,4.0,55,0.00,,OVC003,0.00,VWS V14.01,2013-03-15 22:45:00,
2013-03-15 18:47:00,39.5,24.7,29.81,WSW,237,2.0,2.0,55,0.00,,OVC003,0.00,VWS V14.01,2013-03-15 22:47:00,
2013-03-15 18:50:00,36.7,22.5,29.83,NE,39,3.0,3.0,56,0.00,,OVC003,0.00,VWS V14.01,2013-03-15 22:50:00,
2013-03-15 18:52:00,39.4,24.1,29.81,WSW,238,2.0,2.0,54,0.00,,OVC003,0.00,VWS V14.01,2013-03-15 22:52:00,
2013-03-15 18:55:00,36.5,21.5,29.83,North,352,2.0,3.0,54,0.00,,OVC003,0.00,VWS V14.01,2013-03-15 22:55:00,
2013-03-15 18:57:00,39.2,24.0,29.81,WSW,238,2.0,2.0,54,0.00,,OVC003,0.00,VWS V14.01,2013-03-15 22:57:00,
2013-03-15 19:00:00,36.4,21.8,29.82,NNE,22,2.0,3.0,55,0.00,,OVC003,0.00,VWS V14.01,2013-03-15 23:00:00,
2013-03-15 19:02:00,39.0,23.3,29.81,ESE,119,2.0,3.0,53,0.00,,OVC003,0.00,VWS V14.01,2013-03-15 23:02:00,
2013-03-15 19:05:00,36.3,21.7,29.82,NNE,22,2.0,2.0,55,0.00,,OVC003,0.00,VWS V14.01,2013-03-15 23:05:00,
2013-03-15 19:08:00,38.8,22.7,29.81,NNE,22,2.0,4.0,52,0.00,,OVC003,0.00,VWS V14.01,2013-03-15 23:08:00,
2013-03-15 19:10:00,36.1,21.9,29.82,NNE,19,2.0,3.0,56,0.00,,OVC003,0.00,VWS V14.01,2013-03-15 23:10:00,
2013-03-15 19:13:00,38.5,22.4,29.81,NNE,21,3.0,3.0,52,0.00,,OVC003,0.00,VWS V14.01,2013-03-15 23:13:00,
2013-03-15 19:15:00,36.0,21.8,29.83,WNW,301,3.0,3.0,56,0.00,,OVC003,0.00,VWS V14.01,2013-03-15 23:15:00,
2013-03-15 19:18:00,38.2,21.7,29.81,NE,36,3.0,4.0,51,0.00,,OVC003,0.00,VWS V14.01,2013-03-15 23:18:00,
2013-03-15 19:20:00,35.8,21.2,29.83,NNE,31,2.0,3.0,55,0.00,,OVC003,0.00,VWS V14.01,2013-03-15 23:20:00,
2013-03-15 19:23:00,38.0,22.0,29.81,North,11,2.0,2.0,52,0.00,,OVC003,0.00,VWS V14.01,2013-03-15 23:23:00,
2013-03-15 19:25:00,35.7,21.6,29.83,NNE,31,2.0,2.0,56,0.00,,OVC003,0.00,VWS V14.01,2013-03-15 23:25:00,
2013-03-15 19:28:00,37.8,22.7,29.81,NNE,21,4.0,4.0,54,0.00,,OVC003,0.00,VWS V14.01,2013-03-15 23:28:00,
2013-03-15 19:30:00,35.6,22.3,29.83,NNE,31,2.0,0.0,58,0.00,,OVC003,0.00,VWS V14.01,2013-03-15 23:30:00,
2013-03-15 19:33:00,37.5,22.4,29.81,NNW,341,2.0,3.0,54,0.00,,OVC003,0.00,VWS V14.01,2013-03-15 23:33:00,
2013-03-15 19:35:00,35.4,21.7,29.83,NNE,28,2.0,4.0,57,0.00,,OVC003,0.00,VWS V14.01,2013-03-15 23:35:00,
2013-03-15 19:38:00,37.3,22.2,29.81,North,359,2.0,2.0,54,0.00,,OVC003,0.00,VWS V14.01,2013-03-15 23:38:00,
2013-03-15 19:40:00,35.2,21.5,29.83,North,2,2.0,3.0,57,0.00,,OVC003,0.00,VWS V14.01,2013-03-15 23:40:00,
2013-03-15 19:43:00,37.1,22.0,29.81,NNE,29,2.0,4.0,54,0.00,,OVC003,0.00,VWS V14.01,2013-03-15 23:43:00,
2013-03-15 19:45:00,35.1,21.4,29.83,North,4,3.0,3.0,57,0.00,,OVC003,0.00,VWS V14.01,2013-03-15 23:45:00,
2013-03-15 19:48:00,36.9,21.8,29.81,NE,39,2.0,4.0,54,0.00,,OVC003,0.00,VWS V14.01,2013-03-15 23:48:00,
2013-03-15 19:53:00,36.8,22.6,29.83,NE,39,2.0,2.0,56,0.00,,OVC003,0.00,VWS V14.01,2013-03-15 23:53:00,
2013-03-15 19:55:00,34.9,21.6,29.83,North,4,2.0,2.0,58,0.00,,OVC003,0.00,VWS V14.01,2013-03-15 23:55:00,
2013-03-15 19:58:00,36.5,21.5,29.83,North,352,3.0,3.0,54,0.00,,OVC003,0.00,VWS V14.01,2013-03-15 23:58:00,
2013-03-15 20:00:00,34.7,21.5,29.83,NE,40,4.0,4.0,58,0.00,,OVC003,0.00,VWS V14.01,2013-03-16 00:00:00,
2013-03-15 20:03:00,36.4,21.4,29.83,NNE,22,2.0,3.0,54,0.00,,OVC003,0.00,VWS V14.01,2013-03-16 00:03:00,
2013-03-15 20:05:00,34.6,21.4,29.83,NNE,29,2.0,2.0,58,0.00,,OVC003,0.00,VWS V14.01,2013-03-16 00:05:00,
2013-03-15 20:08:00,36.3,21.7,29.82,NNE,22,2.0,2.0,55,0.00,,OVC003,0.00,VWS V14.01,2013-03-16 00:08:00,
2013-03-15 20:10:00,34.4,21.2,29.83,North,7,2.0,2.0,58,0.00,,OVC003,0.00,VWS V14.01,2013-03-16 00:10:00,
2013-03-15 20:13:00,36.2,22.0,29.82,NNE,18,2.0,3.0,56,0.00,,OVC003,0.00,VWS V14.01,2013-03-16 00:13:00,
2013-03-15 20:15:00,34.4,21.2,29.83,North,7,2.0,2.0,58,0.00,,OVC003,0.00,VWS V14.01,2013-03-16 00:15:00,
2013-03-15 20:19:00,36.0,21.8,29.83,WNW,301,4.0,4.0,56,0.00,,OVC003,0.00,VWS V14.01,2013-03-16 00:19:00,
2013-03-15 20:20:00,34.4,21.2,29.83,North,7,2.0,2.0,58,0.00,,OVC003,0.00,VWS V14.01,2013-03-16 00:20:00,
2013-03-15 20:24:00,35.8,21.2,29.83,NNE,31,2.0,3.0,55,0.00,,OVC003,0.00,VWS V14.01,2013-03-16 00:24:00,
2013-03-15 20:25:00,34.4,21.6,29.83,North,6,2.0,2.0,59,0.00,,OVC003,0.00,VWS V14.01,2013-03-16 00:25:00,
2013-03-15 20:29:00,35.7,21.6,29.83,NNE,31,2.0,2.0,56,0.00,,OVC003,0.00,VWS V14.01,2013-03-16 00:29:00,
2013-03-15 20:30:00,34.3,21.5,29.83,NE,51,3.0,3.0,59,0.00,,OVC003,0.00,VWS V14.01,2013-03-16 00:30:00,
2013-03-15 20:34:00,35.6,21.9,29.83,NNE,31,2.0,0.0,57,0.00,,OVC003,0.00,VWS V14.01,2013-03-16 00:34:00,
2013-03-15 20:35:00,34.2,21.4,29.83,NE,47,4.0,4.0,59,0.00,,OVC003,0.00,VWS V14.01,2013-03-16 00:35:00,
2013-03-15 20:39:00,35.4,21.7,29.83,NNE,28,2.0,4.0,57,0.00,,OVC003,0.00,VWS V14.01,2013-03-16 00:39:00,
2013-03-15 20:40:00,34.2,21.4,29.83,NE,47,2.0,2.0,59,0.00,,OVC003,0.00,VWS V14.01,2013-03-16 00:40:00,
2013-03-15 20:44:00,35.2,21.5,29.83,North,2,2.0,3.0,57,0.00,,OVC003,0.00,VWS V14.01,2013-03-16 00:44:00,
2013-03-15 20:45:00,34.1,21.7,29.85,NE,47,2.0,2.0,60,0.00,,OVC003,0.00,VWS V14.01,2013-03-16 00:45:00,
2013-03-15 20:49:00,35.1,21.4,29.83,North,4,2.0,2.0,57,0.00,,OVC003,0.00,VWS V14.01,2013-03-16 00:49:00,
2013-03-15 20:50:00,34.0,22.0,29.85,NE,47,2.0,2.0,61,0.00,,OVC003,0.00,VWS V14.01,2013-03-16 00:50:00,
2013-03-15 20:54:00,35.0,21.3,29.83,North,4,2.0,2.0,57,0.00,,OVC003,0.00,VWS V14.01,2013-03-16 00:54:00,
2013-03-15 20:55:00,33.9,22.3,29.85,NE,47,2.0,2.0,62,0.00,,OVC003,0.00,VWS V14.01,2013-03-16 00:55:00,
2013-03-15 20:59:00,34.9,21.6,29.83,North,4,2.0,2.0,58,0.00,,OVC003,0.00,VWS V14.01,2013-03-16 00:59:00,
2013-03-15 21:00:00,33.9,24.1,29.85,NE,47,2.0,3.0,67,0.00,,OVC003,0.00,VWS V14.01,2013-03-16 01:00:00,
2013-03-15 21:04:00,34.7,21.5,29.83,NE,41,2.0,3.0,58,0.00,,OVC003,0.00,VWS V14.01,2013-03-16 01:04:00,
2013-03-15 21:05:00,33.7,24.6,29.85,NE,55,2.0,3.0,69,0.00,,OVC003,0.00,VWS V14.01,2013-03-16 01:05:00,
2013-03-15 21:09:00,34.6,21.4,29.83,NNE,29,2.0,2.0,58,0.00,,OVC003,0.00,VWS V14.01,2013-03-16 01:09:00,
2013-03-15 21:10:00,33.4,25.4,29.85,NNE,25,4.0,4.0,72,0.00,,OVC003,0.00,VWS V14.01,2013-03-16 01:10:00,
2013-03-15 21:14:00,34.4,21.2,29.83,North,7,2.0,2.0,58,0.00,,OVC003,0.00,VWS V14.01,2013-03-16 01:14:00,
2013-03-15 21:15:00,33.1,25.4,29.85,NE,43,3.0,3.0,73,0.00,,OVC003,0.00,VWS V14.01,2013-03-16 01:15:00,
2013-03-15 21:19:00,34.4,21.2,29.83,North,7,2.0,2.0,58,0.00,,OVC003,0.00,VWS V14.01,2013-03-16 01:19:00,
2013-03-15 21:20:00,32.9,25.5,29.85,NE,43,2.0,2.0,74,0.00,,OVC003,0.00,VWS V14.01,2013-03-16 01:20:00,
2013-03-15 21:24:00,34.4,21.2,29.83,North,7,2.0,2.0,58,0.00,,OVC003,0.00,VWS V14.01,2013-03-16 01:24:00,
2013-03-15 21:25:00,32.7,26.0,29.85,NNE,15,2.0,3.0,76,0.00,,OVC003,0.00,VWS V14.01,2013-03-16 01:25:00,
2013-03-15 21:30:00,34.4,21.6,29.83,North,7,2.0,0.0,59,0.00,,OVC003,0.00,VWS V14.01,2013-03-16 01:30:00,
2013-03-15 21:35:00,34.3,21.5,29.83,NE,51,2.0,2.0,59,0.00,,OVC003,0.00,VWS V14.01,2013-03-16 01:35:00,
2013-03-15 21:40:00,34.2,21.4,29.83,NE,47,3.0,3.0,59,0.00,,OVC003,0.00,VWS V14.01,2013-03-16 01:40:00,
2013-03-15 21:45:00,34.2,21.8,29.83,NE,47,2.0,0.0,60,0.00,,OVC003,0.00,VWS V14.01,2013-03-16 01:45:00,
2013-03-15 21:50:00,34.1,22.1,29.85,NE,47,2.0,0.0,61,0.00,,OVC003,0.00,VWS V14.01,2013-03-16 01:50:00,
2013-03-15 21:55:00,34.0,22.0,29.85,NE,47,2.0,2.0,61,0.00,,OVC003,0.00,VWS V14.01,2013-03-16 01:55:00,
2013-03-15 22:00:00,33.9,22.3,29.85,NE,47,4.0,4.0,62,0.00,,OVC003,0.00,VWS V14.01,2013-03-16 02:00:00,
2013-03-15 22:05:00,33.9,24.1,29.85,NE,47,2.0,0.0,67,0.00,,OVC003,0.00,VWS V14.01,2013-03-16 02:05:00,
2013-03-15 22:10:00,33.7,25.0,29.85,NE,55,2.0,2.0,70,0.00,,OVC003,0.00,VWS V14.01,2013-03-16 02:10:00,
2013-03-15 22:15:00,33.4,25.4,29.85,NNE,25,2.0,2.0,72,0.00,,OVC003,0.00,VWS V14.01,2013-03-16 02:15:00,
2013-03-15 22:20:00,33.1,25.4,29.85,NE,43,2.0,2.0,73,0.00,,OVC003,0.00,VWS V14.01,2013-03-16 02:20:00,
2013-03-15 22:25:00,32.9,25.9,29.85,North,9,4.0,4.0,75,0.00,,OVC003,0.00,VWS V14.01,2013-03-16 02:25:00,
2013-03-15 22:30:00,32.6,25.9,29.85,NNE,15,4.0,4.0,76,0.00,,OVC003,0.00,VWS V14.01,2013-03-16 02:30:00,
2013-03-15 22:35:00,32.5,26.1,29.83,NE,41,3.0,3.0,77,0.00,,OVC003,0.00,VWS V14.01,2013-03-16 02:35:00,
2013-03-15 22:40:00,32.3,25.9,29.83,NE,48,3.0,5.0,77,0.00,,OVC003,0.00,VWS V14.01,2013-03-16 02:40:00,
2013-03-15 22:45:00,32.2,26.1,29.83,NE,48,2.0,2.0,78,0.00,,OVC003,0.00,VWS V14.01,2013-03-16 02:45:00,
2013-03-15 22:50:00,31.4,25.6,29.83,East,89,2.0,2.0,79,0.00,,OVC003,0.00,VWS V14.01,2013-03-16 02:50:00,
2013-03-15 22:51:00,32.1,26.0,29.83,NNE,13,3.0,3.0,78,0.00,,OVC003,0.00,VWS V14.01,2013-03-16 02:51:00,
2013-03-15 22:55:00,31.4,25.6,29.83,ENE,67,3.0,3.0,79,0.00,,OVC003,0.00,VWS V14.01,2013-03-16 02:55:00,
2013-03-15 22:56:00,32.1,26.3,29.83,SE,126,2.0,0.0,79,0.00,,OVC003,0.00,VWS V14.01,2013-03-16 02:56:00,
2013-03-15 22:57:00,31.4,25.6,29.83,ENE,67,2.0,2.0,79,0.00,,OVC003,0.00,VWS V14.01,2013-03-16 02:57:00,
2013-03-15 22:58:00,31.4,25.6,29.83,NNE,32,3.0,3.0,79,0.00,,OVC003,0.00,VWS V14.01,2013-03-16 02:58:00,
2013-03-15 22:59:00,31.4,25.6,29.83,NNE,32,2.0,2.0,79,0.00,,OVC003,0.00,VWS V14.01,2013-03-16 02:59:00,
2013-03-15 23:00:00,31.4,25.6,29.83,NNE,32,2.0,2.0,79,0.00,,OVC003,0.00,VWS V14.01,2013-03-16 03:00:00,
2013-03-15 23:01:00,32.0,26.2,29.83,East,101,2.0,0.0,79,0.00,,OVC003,0.00,VWS V14.01,2013-03-16 03:01:00,
2013-03-15 23:02:00,31.4,25.6,29.83,NE,37,3.0,4.0,79,0.00,,OVC003,0.00,VWS V14.01,2013-03-16 03:02:00,
2013-03-15 23:03:00,31.3,25.6,29.83,NE,37,2.0,4.0,79,0.00,,OVC003,0.00,VWS V14.01,2013-03-16 03:03:00,
2013-03-15 23:05:00,31.3,25.6,29.83,NE,37,2.0,4.0,79,0.00,,OVC003,0.00,VWS V14.01,2013-03-16 03:05:00,
2013-03-15 23:06:00,31.3,25.6,29.83,NE,37,2.0,2.0,79,0.00,,OVC003,0.00,VWS V14.01,2013-03-16 03:06:00,
2013-03-15 23:07:00,31.9,26.1,29.84,NNE,17,3.0,3.0,79,0.00,,OVC003,0.00,VWS V14.01,2013-03-16 03:07:00,
2013-03-15 23:09:00,31.3,25.6,29.83,NE,37,2.0,2.0,79,0.00,,OVC003,0.00,VWS V14.01,2013-03-16 03:09:00,
2013-03-15 23:10:00,31.3,25.6,29.83,NE,37,2.0,2.0,79,0.00,,OVC003,0.00,VWS V14.01,2013-03-16 03:10:00,
2013-03-15 23:11:00,31.3,25.6,29.83,NE,37,2.0,0.0,79,0.00,,OVC003,0.00,VWS V14.01,2013-03-16 03:11:00,
2013-03-15 23:12:00,31.9,26.1,29.84,ENE,66,3.0,3.0,79,0.00,,OVC003,0.00,VWS V14.01,2013-03-16 03:12:00,
2013-03-15 23:13:00,31.3,25.6,29.83,NE,37,2.0,2.0,79,0.00,,OVC003,0.00,VWS V14.01,2013-03-16 03:13:00,
2013-03-15 23:14:00,31.3,25.6,29.83,ENE,72,3.0,3.0,79,0.00,,OVC003,0.00,VWS V14.01,2013-03-16 03:14:00,
2013-03-15 23:15:00,31.3,25.6,29.83,NE,53,3.0,3.0,79,0.00,,OVC003,0.00,VWS V14.01,2013-03-16 03:15:00,
2013-03-15 23:16:00,31.2,25.5,29.83,NE,53,2.0,2.0,79,0.00,,OVC003,0.00,VWS V14.01,2013-03-16 03:16:00,
2013-03-15 23:17:00,31.8,25.7,29.84,ENE,66,2.0,3.0,78,0.00,,OVC003,0.00,VWS V14.01,2013-03-16 03:17:00,
2013-03-15 23:18:00,31.2,25.5,29.83,NE,53,2.0,2.0,79,0.00,,OVC003,0.00,VWS V14.01,2013-03-16 03:18:00,
2013-03-15 23:19:00,31.2,25.5,29.83,NE,53,2.0,2.0,79,0.00,,OVC003,0.00,VWS V14.01,2013-03-16 03:19:00,
2013-03-15 23:20:00,31.2,25.5,29.83,NE,53,2.0,2.0,79,0.00,,OVC003,0.00,VWS V14.01,2013-03-16 03:20:00,
2013-03-15 23:21:00,31.2,25.5,29.83,ESE,121,4.0,4.0,79,0.00,,OVC003,0.00,VWS V14.01,2013-03-16 03:21:00,
2013-03-15 23:22:00,31.7,25.9,29.83,ENE,66,2.0,0.0,79,0.00,,OVC003,0.00,VWS V14.01,2013-03-16 03:22:00,
2013-03-15 23:23:00,31.2,25.5,29.83,ESE,120,2.0,2.0,79,0.00,,OVC003,0.00,VWS V14.01,2013-03-16 03:23:00,
2013-03-15 23:24:00,31.2,25.5,29.83,ESE,118,4.0,4.0,79,0.00,,OVC003,0.00,VWS V14.01,2013-03-16 03:24:00,
2013-03-15 23:25:00,31.1,25.4,29.83,ESE,118,2.0,3.0,79,0.00,,OVC003,0.00,VWS V14.01,2013-03-16 03:25:00,
2013-03-15 23:26:00,31.1,25.4,29.83,ESE,118,2.0,2.0,79,0.00,,OVC003,0.00,VWS V14.01,2013-03-16 03:26:00,
2013-03-15 23:27:00,31.6,25.5,29.83,ENE,66,2.0,2.0,78,0.00,,OVC003,0.00,VWS V14.01,2013-03-16 03:27:00,
2013-03-15 23:28:00,31.1,25.4,29.83,ESE,118,2.0,2.0,79,0.00,,OVC003,0.00,VWS V14.01,2013-03-16 03:28:00,
2013-03-15 23:29:00,31.1,25.4,29.83,ESE,118,2.0,2.0,79,0.00,,OVC003,0.00,VWS V14.01,2013-03-16 03:29:00,
2013-03-15 23:30:00,31.1,25.4,29.83,ESE,118,2.0,2.0,79,0.00,,OVC003,0.00,VWS V14.01,2013-03-16 03:30:00,
2013-03-15 23:31:00,31.1,25.4,29.83,ESE,118,2.0,2.0,79,0.00,,OVC003,0.00,VWS V14.01,2013-03-16 03:31:00,
2013-03-15 23:32:00,31.6,25.9,29.83,ENE,66,2.0,2.0,79,0.00,,OVC003,0.00,VWS V14.01,2013-03-16 03:32:00,
2013-03-15 23:33:00,31.1,25.4,29.83,ESE,118,2.0,2.0,79,0.00,,OVC003,0.00,VWS V14.01,2013-03-16 03:33:00,
2013-03-15 23:34:00,31.1,25.4,29.83,ESE,118,2.0,2.0,79,0.00,,OVC003,0.00,VWS V14.01,2013-03-16 03:34:00,
2013-03-15 23:35:00,31.1,25.4,29.83,ESE,118,2.0,2.0,79,0.00,,OVC003,0.00,VWS V14.01,2013-03-16 03:35:00,
2013-03-15 23:36:00,31.1,25.4,29.83,ESE,118,2.0,0.0,79,0.00,,OVC003,0.00,VWS V14.01,2013-03-16 03:36:00,
2013-03-15 23:37:00,31.1,25.4,29.83,ESE,118,2.0,0.0,79,0.00,,OVC003,0.00,VWS V14.01,2013-03-16 03:37:00,
2013-03-15 23:38:00,31.5,25.8,29.83,ENE,66,2.0,2.0,79,0.00,,OVC003,0.00,VWS V14.01,2013-03-16 03:38:00,
2013-03-15 23:39:00,31.1,25.4,29.83,ESE,118,4.0,4.0,79,0.00,,OVC003,0.00,VWS V14.01,2013-03-16 03:39:00,
2013-03-15 23:40:00,31.1,25.4,29.83,SE,129,2.0,3.0,79,0.00,,OVC003,0.00,VWS V14.01,2013-03-16 03:40:00,
2013-03-15 23:41:00,31.1,25.4,29.83,SE,129,2.0,2.0,79,0.00,,OVC003,0.00,VWS V14.01,2013-03-16 03:41:00,
2013-03-15 23:42:00,31.1,25.4,29.83,SE,124,4.0,4.0,79,0.00,,OVC003,0.00,VWS V14.01,2013-03-16 03:42:00,
2013-03-15 23:43:00,31.5,25.8,29.83,SE,125,4.0,4.0,79,0.00,,OVC003,0.00,VWS V14.01,2013-03-16 03:43:00,
2013-03-15 23:44:00,31.0,25.0,29.83,NE,52,2.0,2.0,78,0.00,,OVC003,0.00,VWS V14.01,2013-03-16 03:44:00,
2013-03-15 23:45:00,31.0,25.0,29.83,ENE,64,3.0,3.0,78,0.00,,OVC003,0.00,VWS V14.01,2013-03-16 03:45:00,
2013-03-15 23:46:00,31.0,25.0,29.83,ESE,118,3.0,3.0,78,0.00,,OVC003,0.00,VWS V14.01,2013-03-16 03:46:00,
2013-03-15 23:47:00,31.0,25.0,29.83,ESE,118,2.0,2.0,78,0.00,,OVC003,0.00,VWS V14.01,2013-03-16 03:47:00,
2013-03-15 23:48:00,31.4,25.6,29.83,East,89,2.0,3.0,79,0.00,,OVC003,0.00,VWS V14.01,2013-03-16 03:48:00,
2013-03-15 23:49:00,31.0,25.0,29.83,ESE,118,2.0,2.0,78,0.00,,OVC003,0.00,VWS V14.01,2013-03-16 03:49:00,
2013-03-15 23:50:00,31.0,25.0,29.83,ESE,118,2.0,0.0,78,0.00,,OVC003,0.00,VWS V14.01,2013-03-16 03:50:00,
2013-03-15 23:51:00,31.0,25.0,29.83,ESE,118,2.0,0.0,78,0.00,,OVC003,0.00,VWS V14.01,2013-03-16 03:51:00,
2013-03-15 23:52:00,31.0,25.0,29.83,ESE,118,2.0,0.0,78,0.00,,OVC003,0.00,VWS V14.01,2013-03-16 03:52:00,
2013-03-15 23:53:00,31.4,25.6,29.83,East,89,2.0,2.0,79,0.00,,OVC003,0.00,VWS V14.01,2013-03-16 03:53:00,
2013-03-15 23:54:00,31.0,25.3,29.83,ESE,118,2.0,2.0,79,0.00,,OVC003,0.00,VWS V14.01,2013-03-16 03:54:00,
2013-03-15 23:55:00,31.0,25.3,29.83,ESE,118,2.0,0.0,79,0.00,,OVC003,0.00,VWS V14.01,2013-03-16 03:55:00,
2013-03-15 23:57:00,31.0,25.3,29.83,ESE,118,2.0,0.0,79,0.00,,OVC003,0.00,VWS V14.01,2013-03-16 03:57:00,
2013-03-15 23:58:00,31.4,25.6,29.83,ENE,72,2.0,2.0,79,0.00,,OVC003,0.00,VWS V14.01,2013-03-16 03:58:00,